KSOP/SOP METAR and TAF weather

Enter ICAO airport designator
Station Type Date Time Source
KSOP METAR 2020/11/27 03:05 UTC NOAA

KSOP 270305Z AUTO 00000KT 1SM BR BKN003 16/16 A3009 RMK AO2 PNO $


Station Type Date Time Source
KSOP Decoded METAR 2020/11/27 03:05 UTC NOAA

Pinehurst/Southern Pines, Moore County Airport, NC, United States (KSOP) 35-14N 079-24W
Nov 26, 2020 - 10:05 PM EST / 2020.11.27 0305 UTC
Wind: Calm:0
Visibility: 1 mile(s):0
Sky conditions: mostly cloudy
Weather: mist
Temperature: 60 F (16 C)
Dew Point: 60 F (16 C)
Relative Humidity: 100%
Pressure (altimeter): 30.09 in. Hg (1018 hPa)
ob: KSOP 270305Z AUTO 00000KT 1SM BR BKN003 16/16 A3009 RMK AO2 PNO
cycle: 3

Station Type Date Time Source
KSOP TAF UTC NOAA

Error!

Example: see airport list